Aérodrome :
LOGIN :

S'inscrire | Disclaimer

   EN    FR    IT 

 










Légende :    VFR   VFR Marginal   IFR   IFR Intensif   IFR Très Intensif
Visi : 
Plafond : 
>= 8 km
>= 3000ft
5 à 8 km
1000 à 3000 ft
1500m à 5 km
500 à 1000 ft
800 à 1500m
200 à 500 ft
< 800m
< 200 ft
Symboles :   Orages  Brouillard  Fortes neiges  Fortes précipitations  Vent > 20 kt
SIGMETs :   Divers  Orages  Givrage  Turbulence  Onde Orograph.  Cendres Volcan.







- Altitude de l'aérodrome : 23 ft
- Code IATA : XFW


EDHI - Hamburg Finkenwerder

DERNIER METAR :
  • 201450Z 30007KT 9999 FEW034 SCT044TCU 22/15 Q1010

METARs EXPIRÉS :
  • 201420Z 30006KT 260V340 9999 SCT033TCU 22/15 Q1010
  • 201350Z 29007KT 210V330 9999 FEW028 SCT033 21/14 Q1010
  • 201320Z 24008KT 200V270 9999 SCT029 21/15 Q1010
  • 201250Z 24009KT 210V270 9999 FEW028 SCT034 BKN048 20/14 Q1010
  • 201220Z 28007KT 240V310 9999 FEW025 SCT038 BKN047 20/15 Q1010

TAF TAF EDHI
Valide du 20 à 15h jusqu'au 20 à 21h UTC


201400Z 2015/2021 29007KT 9999 SCT025
TEMPO 2015/2021 SHRA BKN015CB
PROB30
TEMPO 2015/2020 24015G30KT 4000 TSRA BKN012CB
Pas de NOTAMs connus pour ce terrain.



MET'MAP, la Météo Aéronautique d'un coup d'oeil ! - Copyright ORBIFLY Décembre 2007 - Disclaimer

ORBIFLY MET'MAP TEAM :

Programmation & Développement : Alexandra Zaïnal
Conception & Développement : Baudouin d'Aumeries
Co-Programmation & Développement : Marc-Olivier Méhu
Soutien technique & logistique : Manuel Goepfert

Contact : metmap@orbifly.com




SOURCES & CREDITS :

   NOAA